Time;durP1;ratioP1;P1;durP2;ratioP2;P2;SDS_P1;SDS_P2;PMS_P1;PMS_P2;Temp;Humidity;BMP_temperature;BMP_pressure;BME280_temperature;BME280_humidity;BME280_pressure;Samples;Min_cycle;Max_cycle;Signal;HPM_P1;HPM_P2
2024/04/08 00:01:45;;;;;;;7.23;2.00;;;14.10;80.90;;;;;;5073878;28;20173;-60
2024/04/08 00:04:11;;;;;;;3.70;2.03;;;14.10;81.10;;;;;;5074328;28;20408;-60
2024/04/08 00:06:36;;;;;;;3.33;1.63;;;14.20;80.10;;;;;;5073264;28;20691;-60
2024/04/08 00:09:03;;;;;;;6.90;2.50;;;14.20;78.60;;;;;;5068586;28;20933;-60
2024/04/08 00:11:29;;;;;;;3.80;2.80;;;14.20;79.10;;;;;;5053424;28;20268;-59
2024/04/08 00:13:55;;;;;;;11.33;2.60;;;14.20;77.40;;;;;;5053477;28;20446;-60
2024/04/08 00:16:32;;;;;;;2.40;1.60;;;14.30;76.50;;;;;;5052936;28;20505;-59
2024/04/08 00:18:58;;;;;;;11.23;2.70;;;14.30;76.50;;;;;;5052815;28;20223;-60
2024/04/08 00:21:24;;;;;;;3.80;1.43;;;14.30;77.70;;;;;;5053414;28;20857;-60
2024/04/08 00:23:49;;;;;;;9.63;2.00;;;14.40;78.60;;;;;;5053543;28;20667;-60
2024/04/08 00:26:15;;;;;;;11.70;1.80;;;14.40;79.20;;;;;;5053386;28;20195;-60
2024/04/08 00:28:41;;;;;;;7.23;3.03;;;14.40;78.40;;;;;;5053142;28;20180;-60
2024/04/08 00:31:10;;;;;;;5.27;2.03;;;14.40;77.40;;;;;;5053266;28;20189;-59
2024/04/08 00:33:36;;;;;;;4.10;1.97;;;14.40;78.20;;;;;;5053357;28;20185;-60
2024/04/08 00:36:04;;;;;;;7.60;2.53;;;14.40;79.90;;;;;;5052408;28;20460;-59
2024/04/08 00:38:30;;;;;;;2.93;2.03;;;14.30;80.60;;;;;;5052755;28;20520;-60
2024/04/08 00:41:02;;;;;;;6.20;1.77;;;14.30;81.40;;;;;;5052859;28;20406;-59
2024/04/08 00:43:28;;;;;;;6.13;2.43;;;14.40;80.40;;;;;;5053073;28;20428;-60
2024/04/08 00:45:55;;;;;;;6.80;1.60;;;14.40;80.80;;;;;;5052683;28;20428;-60
2024/04/08 00:48:21;;;;;;;4.30;2.00;;;14.50;81.70;;;;;;5052722;28;20415;-60
2024/04/08 00:50:50;;;;;;;4.33;1.87;;;14.40;81.20;;;;;;5052061;28;20430;-59
2024/04/08 00:53:19;;;;;;;15.17;3.17;;;14.30;81.40;;;;;;5052622;28;20419;-59
2024/04/08 00:55:47;;;;;;;15.83;3.50;;;14.40;81.00;;;;;;5052665;28;20428;-60
2024/04/08 00:58:14;;;;;;;8.10;2.83;;;14.50;79.40;;;;;;5052327;28;20465;-60
2024/04/08 01:00:40;;;;;;;4.53;1.50;;;14.60;80.40;;;;;;5052314;28;20404;-60
2024/04/08 01:03:06;;;;;;;12.20;4.07;;;14.60;81.10;;;;;;5052626;28;20401;-60
2024/04/08 01:05:34;;;;;;;10.50;2.53;;;14.60;81.00;;;;;;5052597;28;20502;-60
2024/04/08 01:08:01;;;;;;;5.13;1.87;;;14.50;81.30;;;;;;5052274;28;20440;-59
2024/04/08 01:10:26;;;;;;;6.87;2.60;;;14.50;82.00;;;;;;5052027;28;20417;-60
2024/04/08 01:12:52;;;;;;;12.80;2.70;;;14.40;82.70;;;;;;5052291;28;20462;-59
2024/04/08 01:15:19;;;;;;;8.07;2.60;;;14.30;81.40;;;;;;5052298;28;20493;-59
2024/04/08 01:17:52;;;;;;;8.90;2.37;;;14.40;81.60;;;;;;5051530;28;20170;-60
2024/04/08 01:20:18;;;;;;;2.20;1.60;;;14.30;82.00;;;;;;5052037;28;20483;-60
2024/04/08 01:22:47;;;;;;;7.73;2.13;;;14.20;83.00;;;;;;5052176;28;20406;-59
2024/04/08 01:25:13;;;;;;;12.17;2.40;;;14.10;83.20;;;;;;5052426;28;20640;-60
2024/04/08 01:27:39;;;;;;;15.13;2.83;;;14.00;82.40;;;;;;5052137;28;20422;-60
2024/04/08 01:30:05;;;;;;;6.40;2.83;;;13.90;83.10;;;;;;5051897;28;20178;-60
2024/04/08 01:32:31;;;;;;;10.97;3.20;;;13.90;83.90;;;;;;5052091;28;20188;-60
2024/04/08 01:34:56;;;;;;;6.97;2.10;;;13.80;84.60;;;;;;5052067;28;20471;-59
2024/04/08 01:37:22;;;;;;;5.40;2.20;;;13.90;84.60;;;;;;5051915;28;20185;-60
2024/04/08 01:39:47;;;;;;;5.73;2.43;;;13.90;83.80;;;;;;5051831;28;20682;-60
2024/04/08 01:42:13;;;;;;;15.63;3.10;;;13.90;83.00;;;;;;5052009;28;20176;-60
2024/04/08 01:44:38;;;;;;;7.50;2.60;;;13.90;83.20;;;;;;5051821;28;20229;-60
2024/04/08 01:47:04;;;;;;;21.33;3.83;;;13.80;84.70;;;;;;5051800;28;20188;-60
2024/04/08 01:49:30;;;;;;;16.37;7.10;;;13.70;85.60;;;;;;5051474;28;20231;-60
2024/04/08 01:51:56;;;;;;;17.90;4.00;;;13.60;86.30;;;;;;5051712;28;20466;-60
2024/04/08 01:54:30;;;;;;;13.30;4.30;;;13.60;86.20;;;;;;5051852;28;20232;-60
2024/04/08 01:56:56;;;;;;;7.63;3.40;;;13.50;86.60;;;;;;5051639;28;20432;-60
2024/04/08 01:59:22;;;;;;;8.13;4.03;;;13.40;86.10;;;;;;5051445;28;20479;-60
2024/04/08 02:01:47;;;;;;;12.30;3.00;;;13.50;86.60;;;;;;5051482;28;20185;-59
2024/04/08 02:04:13;;;;;;;13.37;3.87;;;13.60;84.90;;;;;;5052070;28;20406;-60
2024/04/08 02:06:38;;;;;;;9.03;4.23;;;13.50;84.80;;;;;;5051371;28;20219;-59
2024/04/08 02:09:04;;;;;;;4.17;3.00;;;13.50;85.80;;;;;;5050280;28;20916;-59
2024/04/08 02:11:30;;;;;;;5.90;2.77;;;13.40;86.00;;;;;;5051495;28;20181;-59
2024/04/08 02:13:55;;;;;;;10.50;3.33;;;13.30;86.70;;;;;;5051488;28;20175;-59
2024/04/08 02:16:21;;;;;;;8.93;3.33;;;13.20;86.50;;;;;;5051380;28;20194;-60
2024/04/08 02:18:50;;;;;;;10.20;2.60;;;13.20;86.90;;;;;;5051186;28;20655;-60
2024/04/08 02:21:16;;;;;;;10.43;2.87;;;13.20;87.10;;;;;;5051158;28;20208;-60
2024/04/08 02:23:41;;;;;;;12.17;2.90;;;13.20;86.40;;;;;;5051271;28;20922;-60
2024/04/08 02:26:07;;;;;;;13.73;3.00;;;13.30;87.30;;;;;;5051088;28;20200;-60
2024/04/08 02:28:33;;;;;;;4.03;2.80;;;13.30;88.20;;;;;;5051146;28;20257;-59
2024/04/08 02:31:02;;;;;;;11.90;4.13;;;13.20;88.50;;;;;;5051022;28;20173;-59
2024/04/08 02:33:37;;;;;;;8.97;2.30;;;13.10;87.20;;;;;;5051270;28;20261;-60
2024/04/08 02:36:06;;;;;;;12.03;3.40;;;13.10;86.80;;;;;;5113902;22;20952;-63
2024/04/08 02:38:33;;;;;;;14.63;2.90;;;13.00;87.20;;;;;;5069992;28;20473;-63
2024/04/08 02:40:59;;;;;;;6.50;2.30;;;13.10;86.70;;;;;;5070922;28;20835;-63
2024/04/08 02:43:25;;;;;;;9.53;2.33;;;13.20;87.20;;;;;;5071375;28;20408;-63
2024/04/08 02:45:51;;;;;;;6.33;2.93;;;13.20;87.40;;;;;;5071263;28;20426;-63
2024/04/08 02:48:19;;;;;;;18.17;3.10;;;13.20;87.20;;;;;;5071254;28;20400;-63
2024/04/08 02:50:45;;;;;;;8.67;2.73;;;13.20;86.20;;;;;;5071118;28;20759;-63
2024/04/08 02:53:11;;;;;;;11.60;2.43;;;13.10;86.70;;;;;;5071238;28;20416;-63
2024/04/08 02:55:39;;;;;;;9.53;2.40;;;13.00;87.60;;;;;;5071204;28;20416;-64
2024/04/08 02:58:05;;;;;;;9.10;2.70;;;13.00;86.90;;;;;;5071121;28;20169;-64
2024/04/08 03:00:31;;;;;;;11.50;2.70;;;12.90;88.60;;;;;;5071175;28;20831;-63
2024/04/08 03:02:56;;;;;;;10.70;3.80;;;12.90;89.00;;;;;;5071191;28;20170;-63
2024/04/08 03:05:22;;;;;;;6.10;2.83;;;13.00;89.30;;;;;;5071116;28;20517;-63
2024/04/08 03:07:51;;;;;;;6.40;2.60;;;13.00;89.80;;;;;;5071119;28;20169;-63
2024/04/08 03:10:16;;;;;;;18.73;4.00;;;12.90;89.90;;;;;;5071110;28;20169;-63
2024/04/08 03:12:42;;;;;;;7.60;2.67;;;12.90;89.70;;;;;;5071049;28;20410;-63
2024/04/08 03:15:09;;;;;;;8.00;2.60;;;13.00;89.50;;;;;;5071060;28;20174;-63
2024/04/08 03:17:35;;;;;;;9.30;4.93;;;12.90;89.80;;;;;;5070818;28;20197;-63
2024/04/08 03:20:01;;;;;;;10.93;2.50;;;12.80;89.30;;;;;;5070882;28;20459;-63
2024/04/08 03:22:26;;;;;;;7.00;2.50;;;12.80;89.30;;;;;;5071008;28;20406;-63
2024/04/08 03:24:52;;;;;;;7.10;3.73;;;12.80;90.10;;;;;;5070955;28;20418;-63
2024/04/08 03:27:18;;;;;;;12.50;2.80;;;12.80;90.10;;;;;;5070829;28;20192;-63
2024/04/08 03:29:43;;;;;;;3.60;1.67;;;12.70;90.00;;;;;;5070677;28;20174;-63
2024/04/08 03:32:09;;;;;;;4.33;2.40;;;12.80;89.70;;;;;;5070838;28;20177;-64
2024/04/08 03:34:35;;;;;;;10.33;2.90;;;12.80;90.30;;;;;;5070917;28;20219;-64
2024/04/08 03:37:02;;;;;;;3.63;2.37;;;12.80;90.70;;;;;;5070827;28;20299;-64
2024/04/08 03:39:28;;;;;;;17.60;2.53;;;12.70;91.00;;;;;;5070665;28;20580;-64
2024/04/08 03:41:53;;;;;;;5.23;2.93;;;12.70;90.80;;;;;;5073735;28;20916;-64
2024/04/08 03:44:19;;;;;;;5.20;1.80;;;12.70;90.50;;;;;;5074472;28;20203;-64
2024/04/08 03:46:45;;;;;;;5.80;2.20;;;12.70;90.30;;;;;;5074227;28;20193;-64
2024/04/08 03:49:11;;;;;;;8.50;2.60;;;12.80;89.80;;;;;;5074208;28;20408;-64
2024/04/08 03:51:37;;;;;;;2.90;1.67;;;12.80;89.40;;;;;;5074283;28;20174;-64
2024/04/08 03:54:03;;;;;;;17.97;4.00;;;12.80;89.40;;;;;;5074203;28;20908;-64
2024/04/08 03:56:28;;;;;;;4.83;1.90;;;12.90;89.10;;;;;;5074088;28;20287;-64
2024/04/08 03:58:54;;;;;;;3.07;1.30;;;12.90;87.80;;;;;;5073950;28;20450;-63
2024/04/08 04:01:20;;;;;;;5.13;1.80;;;12.90;85.20;;;;;;5073812;28;20174;-63
2024/04/08 04:03:46;;;;;;;7.47;1.83;;;12.90;83.60;;;;;;5074130;28;20177;-64
2024/04/08 04:06:14;;;;;;;4.03;1.20;;;13.00;84.90;;;;;;5073910;28;20442;-63
2024/04/08 04:08:39;;;;;;;5.33;1.20;;;13.00;83.30;;;;;;5072480;28;20173;-63
2024/04/08 04:11:06;;;;;;;4.60;1.07;;;13.00;82.90;;;;;;5073758;28;20414;-64
2024/04/08 04:13:31;;;;;;;5.93;3.20;;;13.00;79.40;;;;;;5073855;28;20549;-63
2024/04/08 04:15:57;;;;;;;2.27;1.57;;;13.00;77.90;;;;;;5073637;28;20428;-63
2024/04/08 04:18:23;;;;;;;3.70;1.60;;;13.10;77.70;;;;;;5073527;28;20174;-63
2024/04/08 04:20:48;;;;;;;2.13;1.37;;;13.20;76.30;;;;;;5073473;28;20632;-65
2024/04/08 04:23:14;;;;;;;3.77;1.43;;;13.30;75.10;;;;;;5074021;28;20189;-65
2024/04/08 04:25:40;;;;;;;1.80;1.20;;;13.30;73.40;;;;;;5073492;28;20428;-64
2024/04/08 04:28:06;;;;;;;1.10;1.10;;;13.30;74.50;;;;;;5072368;28;20165;-64
2024/04/08 04:30:32;;;;;;;2.60;0.90;;;13.30;74.20;;;;;;5073226;28;20909;-64
2024/04/08 04:33:00;;;;;;;7.73;1.43;;;13.30;74.10;;;;;;5073564;28;20169;-64
2024/04/08 04:35:27;;;;;;;1.97;0.90;;;13.20;75.50;;;;;;5073367;28;20411;-64
2024/04/08 04:37:53;;;;;;;6.43;1.67;;;13.30;77.20;;;;;;5073417;28;20446;-64
2024/04/08 04:40:18;;;;;;;2.97;1.63;;;13.20;77.20;;;;;;5071816;28;20531;-64
2024/04/08 04:42:45;;;;;;;8.20;1.07;;;13.20;76.50;;;;;;5072584;28;20411;-63
2024/04/08 04:45:11;;;;;;;1.00;0.97;;;13.20;74.70;;;;;;5072860;28;20172;-64
2024/04/08 04:47:37;;;;;;;1.33;1.13;;;13.10;74.10;;;;;;5073117;28;20943;-64
2024/04/08 04:50:03;;;;;;;13.97;1.80;;;13.10;75.40;;;;;;5073019;28;20412;-64
2024/04/08 04:52:30;;;;;;;0.83;0.80;;;13.20;75.20;;;;;;5070541;28;20182;-64
2024/04/08 04:54:56;;;;;;;2.33;1.50;;;13.20;74.40;;;;;;5073059;28;20441;-64
2024/04/08 04:57:22;;;;;;;3.27;1.40;;;13.20;75.50;;;;;;5071760;28;20431;-64
2024/04/08 04:59:47;;;;;;;2.10;0.80;;;13.00;75.10;;;;;;5072650;28;20797;-64
2024/04/08 05:02:13;;;;;;;1.90;1.43;;;13.00;74.30;;;;;;5071750;28;20650;-63
2024/04/08 05:04:38;;;;;;;4.47;2.20;;;13.00;73.50;;;;;;5072930;28;20569;-64
2024/04/08 05:07:04;;;;;;;3.80;1.83;;;13.00;75.40;;;;;;5072692;28;20189;-64
2024/04/08 05:09:30;;;;;;;3.70;1.40;;;13.00;78.20;;;;;;5072558;28;20651;-64
2024/04/08 05:11:56;;;;;;;4.37;2.67;;;12.90;78.80;;;;;;5072600;28;20411;-64
2024/04/08 05:14:22;;;;;;;5.30;1.60;;;12.90;79.30;;;;;;5072720;28;20599;-64
2024/04/08 05:16:50;;;;;;;0.80;0.80;;;12.90;79.70;;;;;;5072522;28;20192;-64
2024/04/08 05:19:16;;;;;;;2.00;0.90;;;12.80;78.60;;;;;;5072368;28;20485;-64
2024/04/08 05:21:43;;;;;;;1.23;1.03;;;12.90;78.30;;;;;;5071839;28;20744;-64
2024/04/08 05:24:09;;;;;;;1.97;1.20;;;12.80;81.10;;;;;;5072399;28;20611;-64
2024/04/08 05:26:35;;;;;;;4.67;1.17;;;12.60;81.80;;;;;;5070600;28;20859;-64
2024/04/08 05:29:01;;;;;;;5.77;1.20;;;12.80;82.20;;;;;;5072106;28;20404;-64
2024/04/08 05:31:26;;;;;;;2.50;1.17;;;12.80;81.80;;;;;;5072164;28;20326;-64
2024/04/08 05:33:52;;;;;;;5.20;1.50;;;12.90;80.80;;;;;;5072218;28;20178;-64
2024/04/08 05:36:18;;;;;;;1.70;1.53;;;13.00;80.40;;;;;;5071402;28;20267;-64
2024/04/08 05:38:43;;;;;;;4.93;0.90;;;13.10;80.40;;;;;;5070440;28;20232;-64
2024/04/08 05:41:09;;;;;;;1.93;0.90;;;13.30;79.50;;;;;;5071823;28;20632;-64
2024/04/08 05:43:34;;;;;;;2.00;0.80;;;13.50;79.80;;;;;;5072214;28;20230;-65
2024/04/08 05:46:00;;;;;;;0.97;0.73;;;13.60;79.40;;;;;;5071614;28;20264;-64
2024/04/08 05:48:26;;;;;;;3.23;1.33;;;13.80;80.50;;;;;;5071976;28;20639;-65
2024/04/08 05:50:51;;;;;;;1.13;1.07;;;13.80;80.30;;;;;;5071689;28;20167;-65
2024/04/08 05:53:17;;;;;;;3.63;1.37;;;14.00;80.50;;;;;;5071888;28;20720;-64
2024/04/08 05:55:43;;;;;;;3.17;1.37;;;14.20;80.90;;;;;;5070701;28;20241;-63
2024/04/08 05:58:10;;;;;;;4.20;1.40;;;14.30;81.30;;;;;;5071926;28;20172;-64
2024/04/08 06:00:38;;;;;;;2.10;1.50;;;14.40;81.70;;;;;;5071582;28;20855;-65
2024/04/08 06:03:06;;;;;;;1.77;1.00;;;14.50;81.50;;;;;;5072115;28;20169;-63
2024/04/08 06:05:32;;;;;;;2.33;1.27;;;14.50;81.10;;;;;;5072135;28;20851;-64
2024/04/08 06:07:58;;;;;;;3.67;0.97;;;14.70;80.00;;;;;;5072704;28;20497;-63
2024/04/08 06:10:31;;;;;;;2.33;1.50;;;15.00;80.70;;;;;;5071688;28;20502;-63
2024/04/08 06:12:57;;;;;;;4.30;1.83;;;15.30;81.30;;;;;;5072980;28;20181;-64
2024/04/08 06:15:23;;;;;;;6.33;1.47;;;15.60;81.00;;;;;;5072354;28;20412;-63
2024/04/08 06:17:49;;;;;;;0.90;0.90;;;15.80;79.70;;;;;;5072376;28;20504;-63
2024/04/08 06:20:15;;;;;;;4.00;1.77;;;15.90;78.70;;;;;;5071992;28;21037;-63
2024/04/08 06:22:40;;;;;;;1.07;1.07;;;15.90;77.70;;;;;;5072447;28;20415;-63
2024/04/08 06:25:07;;;;;;;3.33;1.67;;;16.10;75.50;;;;;;5072263;28;20218;-62
2024/04/08 06:27:33;;;;;;;1.37;1.37;;;16.30;75.30;;;;;;5072220;28;20698;-62
2024/04/08 06:29:59;;;;;;;3.90;1.30;;;16.60;75.20;;;;;;5071828;28;20407;-62
2024/04/08 06:32:25;;;;;;;2.10;1.10;;;16.90;75.60;;;;;;5071870;28;20792;-62
2024/04/08 06:34:51;;;;;;;3.50;0.97;;;17.20;73.90;;;;;;5072186;28;20175;-62
2024/04/08 06:37:16;;;;;;;4.30;1.00;;;17.40;72.40;;;;;;5072072;28;20202;-62
2024/04/08 06:39:42;;;;;;;4.40;1.77;;;17.50;73.60;;;;;;5071911;28;20455;-63
2024/04/08 06:42:16;;;;;;;2.50;1.70;;;17.70;73.00;;;;;;5054270;28;20173;-63
2024/04/08 06:44:46;;;;;;;2.23;1.60;;;18.00;71.20;;;;;;5072163;28;20541;-63
2024/04/08 06:47:12;;;;;;;1.80;1.70;;;18.10;71.00;;;;;;5072154;28;20437;-62
2024/04/08 06:49:37;;;;;;;2.40;1.20;;;18.50;71.30;;;;;;5070263;28;20427;-64
2024/04/08 06:52:03;;;;;;;3.83;2.00;;;18.60;70.10;;;;;;5072049;28;20188;-63
2024/04/08 06:56:09;;;;;;;3.40;2.30;;;18.70;68.50;;;;;;5543087;25;20558;-62
2024/04/08 06:58:34;;;;;;;3.57;1.87;;;19.10;68.60;;;;;;5543580;25;20441;-62
2024/04/08 07:01:01;;;;;;;2.77;2.00;;;19.50;67.00;;;;;;5543381;25;20210;-62
2024/04/08 07:03:26;;;;;;;2.60;1.60;;;19.90;65.70;;;;;;5543688;25;20211;-62
2024/04/08 07:05:52;;;;;;;2.57;1.60;;;20.20;65.00;;;;;;5543684;25;20876;-62
2024/04/08 07:08:17;;;;;;;5.07;1.53;;;20.40;64.00;;;;;;5543521;25;20582;-62
2024/04/08 07:10:47;;;;;;;3.37;1.43;;;20.90;62.40;;;;;;5543236;25;20311;-62
2024/04/08 07:13:13;;;;;;;1.97;1.60;;;21.30;60.40;;;;;;5543732;25;20212;-62
2024/04/08 07:15:39;;;;;;;2.43;1.47;;;21.70;59.50;;;;;;5543705;25;20506;-62
2024/04/08 07:18:04;;;;;;;3.47;1.57;;;22.10;57.80;;;;;;5544318;25;20519;-62
2024/04/08 07:20:31;;;;;;;2.70;1.63;;;22.80;57.10;;;;;;5543486;25;20276;-62
2024/04/08 07:22:57;;;;;;;8.17;1.77;;;23.30;56.50;;;;;;5543796;25;20227;-63
2024/04/08 07:25:23;;;;;;;2.40;1.33;;;23.70;56.90;;;;;;5543476;25;20533;-63
2024/04/08 07:27:49;;;;;;;3.40;1.50;;;24.00;55.80;;;;;;5543600;25;20448;-62
2024/04/08 07:30:14;;;;;;;3.00;1.37;;;24.70;53.40;;;;;;5543338;25;20224;-63
2024/04/08 07:32:40;;;;;;;3.03;2.10;;;25.40;51.30;;;;;;5543712;25;20730;-62
2024/04/08 07:35:06;;;;;;;4.43;2.70;;;26.10;50.90;;;;;;5541288;25;20227;-63
2024/04/08 07:37:32;;;;;;;1.87;1.40;;;26.80;49.60;;;;;;5542997;25;20516;-62
2024/04/08 07:39:58;;;;;;;2.57;1.27;;;27.30;48.10;;;;;;5542515;25;20961;-62
2024/04/08 07:42:24;;;;;;;3.30;1.83;;;28.00;46.30;;;;;;5543276;25;20673;-63
2024/04/08 07:44:51;;;;;;;2.83;1.40;;;28.60;45.30;;;;;;5542877;25;20497;-62
2024/04/08 07:47:16;;;;;;;1.43;1.30;;;29.20;44.80;;;;;;5541396;25;20240;-63
2024/04/08 07:49:45;;;;;;;5.80;1.50;;;29.70;43.20;;;;;;5542347;25;20553;-63
2024/04/08 07:52:11;;;;;;;5.40;1.40;;;30.10;41.60;;;;;;5543163;25;20887;-62
2024/04/08 07:54:38;;;;;;;3.73;1.30;;;30.30;38.70;;;;;;5541213;25;20460;-63
2024/04/08 07:57:04;;;;;;;2.00;1.17;;;30.20;39.40;;;;;;5542987;25;20224;-63
2024/04/08 07:59:30;;;;;;;6.40;1.00;;;30.50;39.50;;;;;;5542820;25;21018;-63
2024/04/08 08:01:55;;;;;;;2.63;1.07;;;30.90;38.10;;;;;;5542967;25;20276;-63
2024/04/08 08:04:21;;;;;;;6.27;1.83;;;31.40;37.50;;;;;;5541226;25;20219;-63
2024/04/08 08:06:47;;;;;;;3.37;1.30;;;31.40;36.70;;;;;;5530178;25;20270;-62
2024/04/08 08:09:13;;;;;;;2.50;1.10;;;31.10;36.50;;;;;;5526808;25;20244;-62
2024/04/08 08:11:38;;;;;;;2.47;1.20;;;30.80;35.90;;;;;;5526496;26;20445;-62
2024/04/08 08:14:04;;;;;;;1.70;1.47;;;30.30;36.50;;;;;;5526819;25;20262;-62
2024/04/08 08:16:30;;;;;;;2.70;1.37;;;30.30;34.70;;;;;;5526531;26;20224;-62
2024/04/08 08:18:55;;;;;;;4.90;1.60;;;30.60;34.80;;;;;;5526626;26;20212;-62
2024/04/08 08:21:21;;;;;;;4.97;1.87;;;31.10;36.20;;;;;;5526209;26;20243;-62
2024/04/08 08:23:47;;;;;;;1.87;1.43;;;31.80;35.80;;;;;;5526616;25;20228;-62
2024/04/08 08:26:13;;;;;;;6.33;1.50;;;32.40;34.40;;;;;;5526541;26;20710;-63
2024/04/08 08:28:38;;;;;;;3.17;2.20;;;32.70;35.20;;;;;;5525074;26;20212;-62
2024/04/08 08:31:04;;;;;;;1.80;1.13;;;32.30;34.20;;;;;;5526218;26;20225;-62
2024/04/08 08:33:30;;;;;;;6.10;2.13;;;32.50;33.60;;;;;;5526282;26;20212;-62
2024/04/08 08:35:56;;;;;;;7.87;1.63;;;32.90;32.90;;;;;;5524042;26;20283;-62
2024/04/08 08:38:22;;;;;;;5.80;2.13;;;33.20;32.40;;;;;;5526183;25;20958;-62
2024/04/08 08:40:54;;;;;;;5.93;1.63;;;33.30;33.00;;;;;;5524912;26;20566;-62
2024/04/08 08:43:28;;;;;;;8.37;2.20;;;33.70;32.30;;;;;;5525979;25;20216;-63
2024/04/08 08:45:54;;;;;;;12.33;2.00;;;33.90;30.90;;;;;;5526272;25;20468;-62
2024/04/08 08:48:21;;;;;;;7.23;1.60;;;34.10;29.30;;;;;;5526361;26;21292;-62
2024/04/08 08:50:48;;;;;;;3.93;1.73;;;34.10;28.10;;;;;;5508821;26;20229;-62
2024/04/08 08:53:14;;;;;;;8.23;3.40;;;33.60;27.90;;;;;;5489264;26;20450;-63
2024/04/08 08:55:40;;;;;;;9.83;2.20;;;32.80;28.40;;;;;;5488826;26;20470;-63
2024/04/08 08:58:08;;;;;;;9.20;3.07;;;32.40;29.30;;;;;;5487859;26;20527;-63
2024/04/08 09:00:40;;;;;;;4.67;1.57;;;32.40;28.10;;;;;;5488769;26;20591;-63
2024/04/08 09:03:14;;;;;;;8.93;2.30;;;31.40;29.10;;;;;;5488979;26;20438;-64
2024/04/08 09:05:40;;;;;;;15.93;4.53;;;31.10;28.60;;;;;;5488474;26;20563;-62
2024/04/08 09:08:06;;;;;;;14.77;2.50;;;30.70;28.80;;;;;;5488384;26;20967;-62
2024/04/08 09:10:46;;;;;;;15.57;2.37;;;30.20;29.10;;;;;;5488631;26;20430;-62
2024/04/08 09:13:21;;;;;;;10.60;1.97;;;29.90;29.10;;;;;;5489154;26;20506;-62
2024/04/08 09:15:52;;;;;;;14.60;2.87;;;29.40;28.50;;;;;;5488846;26;20454;-62
2024/04/08 09:18:20;;;;;;;4.03;2.17;;;28.40;29.00;;;;;;5489294;26;20443;-62
2024/04/08 09:20:46;;;;;;;17.97;2.97;;;27.40;29.50;;;;;;5488536;26;20517;-62
2024/04/08 09:23:12;;;;;;;9.00;3.10;;;27.30;30.00;;;;;;5488899;26;20498;-62
2024/04/08 09:25:39;;;;;;;7.13;2.13;;;27.10;30.40;;;;;;5488850;26;20309;-62
2024/04/08 09:28:07;;;;;;;8.80;3.03;;;27.10;30.80;;;;;;5489035;26;20491;-62
2024/04/08 09:30:33;;;;;;;9.57;2.67;;;27.10;30.50;;;;;;5488413;26;20434;-62
2024/04/08 09:32:59;;;;;;;11.30;2.70;;;27.30;30.10;;;;;;5488921;26;20487;-62
2024/04/08 09:35:25;;;;;;;5.63;2.57;;;27.80;30.40;;;;;;5488686;26;20442;-62
2024/04/08 09:37:55;;;;;;;6.27;1.77;;;28.30;29.80;;;;;;5488709;26;20504;-62
2024/04/08 09:40:23;;;;;;;9.50;2.80;;;28.70;29.30;;;;;;5488293;26;20501;-62
2024/04/08 09:42:51;;;;;;;7.30;2.40;;;28.90;29.10;;;;;;5488750;26;20506;-62
2024/04/08 09:45:18;;;;;;;12.03;2.60;;;28.60;29.50;;;;;;5488705;26;20908;-62
2024/04/08 09:47:45;;;;;;;13.13;2.97;;;28.00;30.50;;;;;;5488680;26;20494;-62
2024/04/08 09:50:12;;;;;;;11.03;2.17;;;27.30;30.40;;;;;;5488392;26;20871;-61
2024/04/08 09:52:42;;;;;;;8.33;2.03;;;26.50;30.30;;;;;;5488793;26;20431;-62
2024/04/08 09:55:09;;;;;;;8.73;3.10;;;25.70;32.00;;;;;;5488525;26;20458;-62
2024/04/08 09:57:42;;;;;;;13.40;2.60;;;25.60;31.30;;;;;;5488183;26;20502;-62
2024/04/08 10:00:15;;;;;;;6.57;2.40;;;25.40;31.40;;;;;;5487998;26;20442;-62
2024/04/08 10:02:43;;;;;;;6.37;2.33;;;25.70;31.20;;;;;;5488385;26;20438;-62
2024/04/08 10:05:12;;;;;;;4.87;2.10;;;25.80;31.90;;;;;;5488390;26;20982;-61
2024/04/08 10:07:38;;;;;;;6.33;1.97;;;25.60;32.90;;;;;;5488059;26;20451;-62
2024/04/08 10:10:05;;;;;;;5.70;1.60;;;25.30;33.50;;;;;;5487795;26;20546;-62
2024/04/08 10:12:35;;;;;;;11.97;2.33;;;25.30;34.10;;;;;;5488258;26;20493;-62
2024/04/08 10:15:11;;;;;;;7.43;2.63;;;25.50;32.90;;;;;;5488130;26;20418;-62
2024/04/08 10:17:37;;;;;;;5.80;2.17;;;25.80;34.50;;;;;;5487938;26;20442;-62
2024/04/08 10:20:07;;;;;;;12.93;2.87;;;26.10;34.60;;;;;;5487697;26;20438;-62
2024/04/08 10:22:35;;;;;;;8.90;1.90;;;26.20;34.90;;;;;;5487941;26;20490;-62
2024/04/08 10:25:01;;;;;;;5.80;1.90;;;26.10;33.90;;;;;;5488039;26;20498;-62
2024/04/08 10:27:27;;;;;;;8.30;2.47;;;26.00;33.60;;;;;;5487983;26;20454;-61
2024/04/08 10:29:59;;;;;;;6.03;2.40;;;25.70;34.70;;;;;;5486789;26;20439;-62
2024/04/08 10:32:25;;;;;;;6.10;1.97;;;25.50;37.10;;;;;;5488349;26;20999;-62
2024/04/08 10:34:55;;;;;;;11.17;3.27;;;25.30;36.60;;;;;;5487685;26;20475;-61
2024/04/08 10:37:21;;;;;;;4.37;2.50;;;25.10;36.60;;;;;;5487640;26;20597;-61
2024/04/08 10:39:46;;;;;;;6.53;2.90;;;25.00;39.30;;;;;;5487407;26;20833;-62
2024/04/08 10:42:14;;;;;;;9.87;3.27;;;24.70;35.80;;;;;;5487805;26;20262;-62
2024/04/08 10:44:40;;;;;;;5.07;2.23;;;24.60;39.00;;;;;;5487713;26;20309;-62
2024/04/08 10:47:07;;;;;;;5.00;1.90;;;24.60;40.20;;;;;;5487934;26;21023;-62
2024/04/08 10:49:40;;;;;;;15.97;2.23;;;24.60;39.80;;;;;;5487359;26;20483;-62
2024/04/08 10:52:05;;;;;;;9.53;2.50;;;24.40;37.10;;;;;;5487632;26;20435;-62
2024/04/08 10:54:32;;;;;;;5.83;2.03;;;24.20;35.20;;;;;;5487890;26;20454;-62
2024/04/08 10:56:58;;;;;;;9.23;2.20;;;24.10;39.70;;;;;;5487652;26;20483;-62
2024/04/08 10:59:24;;;;;;;5.63;2.70;;;23.90;38.90;;;;;;5487283;26;20479;-62
2024/04/08 11:01:50;;;;;;;10.57;2.37;;;23.80;40.10;;;;;;5487022;26;21012;-62
2024/04/08 11:04:18;;;;;;;8.33;3.20;;;23.70;37.70;;;;;;5487280;26;20205;-62
2024/04/08 11:06:43;;;;;;;13.10;3.17;;;23.70;38.50;;;;;;5487232;26;20762;-62
2024/04/08 11:09:09;;;;;;;6.57;2.47;;;23.80;39.50;;;;;;5487039;26;20423;-61
2024/04/08 11:11:35;;;;;;;9.70;2.67;;;24.00;39.40;;;;;;5487014;26;20218;-62
2024/04/08 11:14:01;;;;;;;7.70;2.60;;;24.20;38.40;;;;;;5487215;26;20655;-62
2024/04/08 11:16:27;;;;;;;13.87;2.57;;;24.20;40.80;;;;;;5486953;26;20237;-62
2024/04/08 11:18:53;;;;;;;9.20;3.20;;;24.20;43.70;;;;;;5486863;26;20442;-62
2024/04/08 11:21:19;;;;;;;10.03;3.37;;;24.30;43.00;;;;;;5486756;26;20422;-62
2024/04/08 11:23:44;;;;;;;8.83;3.10;;;24.30;41.80;;;;;;5487065;26;20575;-62
2024/04/08 11:26:10;;;;;;;7.03;1.87;;;24.30;40.20;;;;;;5486856;26;20221;-62
2024/04/08 11:28:36;;;;;;;7.00;1.80;;;24.40;42.50;;;;;;5486713;26;20210;-62
2024/04/08 11:31:07;;;;;;;10.83;2.60;;;24.50;44.10;;;;;;5486495;26;20427;-62
2024/04/08 11:33:33;;;;;;;12.60;3.70;;;24.70;43.60;;;;;;5486911;26;20454;-62
2024/04/08 11:35:58;;;;;;;5.80;3.20;;;24.70;44.80;;;;;;5486709;26;21060;-62
2024/04/08 11:38:24;;;;;;;9.47;3.70;;;24.70;41.60;;;;;;5486639;26;20214;-62
2024/04/08 11:40:50;;;;;;;14.23;3.13;;;24.70;40.60;;;;;;5486529;26;20218;-62
2024/04/08 11:43:16;;;;;;;10.90;2.77;;;24.90;37.00;;;;;;5490395;26;20703;-62
2024/04/08 11:45:42;;;;;;;9.73;3.23;;;25.20;37.30;;;;;;5490067;26;20511;-62
2024/04/08 11:48:08;;;;;;;11.17;3.00;;;25.50;37.20;;;;;;5490449;26;20520;-61
2024/04/08 11:50:34;;;;;;;6.60;3.30;;;25.70;37.60;;;;;;5489863;26;20213;-62
2024/04/08 11:52:59;;;;;;;11.03;3.17;;;25.80;36.80;;;;;;5490261;26;20466;-62
2024/04/08 11:55:25;;;;;;;11.13;2.83;;;26.00;36.60;;;;;;5490178;26;20442;-62
2024/04/08 11:57:53;;;;;;;14.30;3.13;;;26.10;35.10;;;;;;5490097;26;20206;-62
2024/04/08 12:00:20;;;;;;;7.70;2.70;;;26.00;34.70;;;;;;5489564;26;20251;-62
2024/04/08 12:02:47;;;;;;;19.13;2.77;;;25.80;34.00;;;;;;5490038;26;20435;-62
2024/04/08 12:05:13;;;;;;;6.93;2.73;;;25.70;34.80;;;;;;5490142;26;20490;-62
2024/04/08 12:07:39;;;;;;;15.70;3.53;;;25.50;33.80;;;;;;5490087;26;21010;-62
2024/04/08 12:10:09;;;;;;;7.50;3.57;;;25.40;31.70;;;;;;5489527;26;20217;-61
2024/04/08 12:12:35;;;;;;;11.83;2.30;;;25.60;32.60;;;;;;5489915;26;20217;-62
2024/04/08 12:15:03;;;;;;;12.73;4.33;;;25.70;31.60;;;;;;5489668;26;20696;-62
2024/04/08 12:17:29;;;;;;;20.97;4.63;;;25.70;31.20;;;;;;5489966;26;20459;-62
2024/04/08 12:19:55;;;;;;;10.87;3.80;;;25.90;31.50;;;;;;5489387;26;20501;-62
2024/04/08 12:22:21;;;;;;;15.47;3.50;;;25.90;31.60;;;;;;5489871;26;20447;-63
2024/04/08 12:24:46;;;;;;;11.13;3.33;;;25.90;31.00;;;;;;5489744;26;20968;-63
2024/04/08 12:27:12;;;;;;;10.67;4.27;;;25.70;30.70;;;;;;5489918;26;20263;-63
2024/04/08 12:29:38;;;;;;;12.50;4.07;;;25.70;31.60;;;;;;5489377;26;20636;-62
2024/04/08 12:32:04;;;;;;;12.73;3.47;;;25.80;31.60;;;;;;5489694;26;20256;-63
2024/04/08 12:34:29;;;;;;;12.93;3.77;;;25.80;31.70;;;;;;5489933;26;20213;-63
2024/04/08 12:36:55;;;;;;;15.03;3.33;;;25.70;30.70;;;;;;5489782;26;20898;-63
2024/04/08 12:39:21;;;;;;;15.60;3.97;;;25.70;30.80;;;;;;5489291;26;20605;-63
2024/04/08 12:41:46;;;;;;;11.67;4.33;;;25.90;31.20;;;;;;5489283;26;20741;-62